Time;durP1;ratioP1;P1;durP2;ratioP2;P2;SDS_P1;SDS_P2;PMS_P1;PMS_P2;Temp;Humidity;BMP_temperature;BMP_pressure;BME280_temperature;BME280_humidity;BME280_pressure;Samples;Min_cycle;Max_cycle;Signal;HPM_P1;HPM_P2
2022/03/09 00:02:17;;;;;;;15.93;8.47;;;0.10;48.40;;;;;;4910741;28;20664;-88
2022/03/09 00:11:52;;;;;;;13.33;8.40;;;0.10;49.20;;;;;;5000126;28;20272;-90
2022/03/09 00:17:07;;;;;;;12.37;8.00;;;-0.20;49.20;;;;;;4999750;28;20745;-89
2022/03/09 00:19:36;;;;;;;12.23;7.90;;;-0.20;49.80;;;;;;4996968;28;20232;-88
2022/03/09 00:22:04;;;;;;;12.67;7.70;;;-0.40;50.70;;;;;;4998021;28;20237;-88
2022/03/09 00:24:36;;;;;;;14.37;8.30;;;-0.50;51.60;;;;;;5034060;28;20629;-89
2022/03/09 00:27:04;;;;;;;14.90;8.33;;;-0.30;51.80;;;;;;5031639;28;20193;-89
2022/03/09 00:30:28;;;;;;;15.37;8.37;;;-0.20;51.70;;;;;;5034075;28;20207;-90
2022/03/09 00:41:22;;;;;;;16.50;9.00;;;-0.40;53.00;;;;;;4984048;28;20202;-88
2022/03/09 00:55:27;;;;;;;16.57;9.67;;;-0.30;53.80;;;;;;4989529;28;20218;-90
2022/03/09 01:00:37;;;;;;;13.40;8.60;;;-0.40;55.10;;;;;;4975915;28;20317;-89
2022/03/09 01:03:29;;;;;;;16.73;8.60;;;-0.40;54.20;;;;;;4991705;28;20642;-89
2022/03/09 01:05:58;;;;;;;12.87;7.97;;;-0.40;54.90;;;;;;4993613;28;20201;-90
2022/03/09 01:08:38;;;;;;;14.13;7.77;;;-0.40;54.80;;;;;;4977730;28;20258;-89
2022/03/09 01:14:13;;;;;;;13.33;8.30;;;-0.60;55.20;;;;;;4979888;28;20220;-90
2022/03/09 01:19:23;;;;;;;13.50;8.07;;;-0.60;56.50;;;;;;4991991;28;20216;-89
2022/03/09 01:21:51;;;;;;;16.20;8.63;;;-0.60;56.70;;;;;;4993850;28;20226;-91
2022/03/09 02:57:42;;;;;;;12.73;7.27;;;-1.90;62.60;;;;;;4984187;28;20661;-90
2022/03/09 03:00:14;;;;;;;12.73;7.87;;;-1.70;62.70;;;;;;4972953;28;20285;-89
2022/03/09 03:02:41;;;;;;;12.60;7.67;;;-1.60;62.90;;;;;;4980630;28;20288;-90
2022/03/09 03:05:11;;;;;;;10.93;7.20;;;-1.50;62.90;;;;;;4994598;28;20271;-90
2022/03/09 03:07:58;;;;;;;12.17;7.77;;;-1.50;62.10;;;;;;4986161;28;20256;-90
2022/03/09 03:10:27;;;;;;;10.33;7.10;;;-1.50;62.40;;;;;;4989660;28;20200;-90
2022/03/09 03:12:54;;;;;;;12.30;7.40;;;-1.50;63.00;;;;;;4991377;28;20303;-89
2022/03/09 03:15:22;;;;;;;11.67;7.23;;;-1.50;62.70;;;;;;4990687;28;20228;-90
2022/03/09 03:17:49;;;;;;;13.43;7.10;;;-1.50;61.00;;;;;;4974208;28;20227;-90
2022/03/09 03:20:16;;;;;;;12.90;7.40;;;-1.60;61.10;;;;;;4974887;28;20203;-90
2022/03/09 03:22:44;;;;;;;10.43;7.17;;;-1.60;62.40;;;;;;4990242;28;20259;-90
2022/03/09 03:25:11;;;;;;;14.70;7.77;;;-1.70;62.70;;;;;;4991420;28;20289;-90
2022/03/09 03:30:20;;;;;;;12.70;6.93;;;-1.80;66.10;;;;;;4984696;28;20188;-90
2022/03/09 03:32:47;;;;;;;13.27;6.87;;;-1.70;62.70;;;;;;4972360;28;20316;-89
2022/03/09 03:35:15;;;;;;;10.57;6.63;;;-1.70;62.70;;;;;;4984669;28;20227;-90
2022/03/09 03:37:42;;;;;;;12.07;6.93;;;-1.80;62.60;;;;;;4973681;28;20288;-89
2022/03/09 03:40:10;;;;;;;12.10;7.60;;;-1.80;62.60;;;;;;4986364;28;20224;-89
2022/03/09 03:42:39;;;;;;;11.30;7.33;;;-1.90;63.80;;;;;;4991796;28;20287;-89
2022/03/09 03:45:07;;;;;;;11.23;7.53;;;-1.90;63.80;;;;;;4990303;28;20224;-90
2022/03/09 03:47:44;;;;;;;11.57;6.90;;;-1.90;64.60;;;;;;4990333;28;20283;-91
2022/03/09 03:50:11;;;;;;;11.20;7.03;;;-1.80;62.60;;;;;;4990263;28;20220;-90
2022/03/09 03:52:38;;;;;;;14.10;6.80;;;-1.70;62.80;;;;;;5004441;28;20243;-90
2022/03/09 03:55:07;;;;;;;12.47;6.80;;;-1.60;62.90;;;;;;4998415;28;20276;-89
2022/03/09 03:57:34;;;;;;;10.87;6.67;;;-1.60;62.90;;;;;;5002993;28;20284;-90
2022/03/09 04:00:04;;;;;;;15.47;7.43;;;-1.60;62.90;;;;;;4989246;28;20276;-90
2022/03/09 04:02:42;;;;;;;11.13;6.73;;;-1.80;62.60;;;;;;4987995;28;20275;-90
2022/03/09 04:05:10;;;;;;;9.47;7.20;;;-1.80;64.30;;;;;;4990564;28;20229;-90
2022/03/09 04:07:36;;;;;;;11.87;6.83;;;-1.90;63.30;;;;;;4993706;28;20291;-89
2022/03/09 04:10:05;;;;;;;10.77;6.80;;;-1.90;65.00;;;;;;4987484;28;20290;-90
2022/03/09 04:12:32;;;;;;;10.93;7.40;;;-2.10;65.60;;;;;;4981442;28;20224;-90
2022/03/09 04:14:59;;;;;;;12.07;6.43;;;-2.10;66.50;;;;;;4987825;28;20269;-90
2022/03/09 04:20:11;;;;;;;13.13;7.33;;;-1.90;66.00;;;;;;4990261;28;20230;-90
2022/03/09 04:22:38;;;;;;;11.50;7.00;;;-2.00;65.80;;;;;;4986957;28;20231;-89
2022/03/09 04:25:07;;;;;;;11.00;7.10;;;-2.10;66.60;;;;;;4993348;28;20205;-91
2022/03/09 04:27:34;;;;;;;10.87;7.37;;;-2.20;67.20;;;;;;4998604;28;20261;-90
2022/03/09 04:30:02;;;;;;;11.07;6.87;;;-2.20;67.20;;;;;;4988371;28;20280;-91
2022/03/09 04:32:32;;;;;;;11.03;7.27;;;-2.20;68.00;;;;;;4987216;28;20233;-90
2022/03/09 04:34:59;;;;;;;12.57;7.40;;;-2.10;68.40;;;;;;4983416;28;20748;-89
2022/03/09 04:37:30;;;;;;;12.73;7.30;;;-2.10;67.70;;;;;;4990590;28;20231;-90
2022/03/09 04:39:57;;;;;;;11.63;7.43;;;-2.10;68.40;;;;;;4987041;28;20206;-90
2022/03/09 04:42:25;;;;;;;9.37;6.77;;;-2.20;68.70;;;;;;4995894;28;20224;-90
2022/03/09 04:44:52;;;;;;;9.90;6.97;;;-2.30;69.80;;;;;;4986162;28;20215;-90
2022/03/09 04:47:24;;;;;;;13.97;7.67;;;-2.40;69.40;;;;;;4986746;28;20591;-90
2022/03/09 04:52:34;;;;;;;13.83;7.27;;;-2.20;69.60;;;;;;4987558;28;20234;-90
2022/03/09 04:55:01;;;;;;;12.70;7.77;;;-2.10;68.80;;;;;;4987986;28;20242;-89
2022/03/09 04:57:28;;;;;;;12.97;7.10;;;-2.10;67.90;;;;;;4982428;28;20222;-90
2022/03/09 04:59:55;;;;;;;10.70;6.73;;;-2.00;68.00;;;;;;4982010;28;20203;-91
2022/03/09 05:02:23;;;;;;;11.27;6.73;;;-2.10;67.20;;;;;;4981356;28;20234;-89
2022/03/09 05:04:52;;;;;;;10.60;6.83;;;-2.00;67.20;;;;;;4982386;28;20235;-91
2022/03/09 05:07:20;;;;;;;10.27;6.43;;;-2.00;66.60;;;;;;4967513;28;20236;-92
2022/03/09 05:09:47;;;;;;;13.37;6.87;;;-2.10;65.80;;;;;;4978939;28;20196;-91
2022/03/09 05:12:14;;;;;;;14.90;6.97;;;-2.10;64.40;;;;;;4971143;28;20289;-90
2022/03/09 05:14:41;;;;;;;10.43;6.57;;;-2.20;65.30;;;;;;4978553;28;20363;-91
2022/03/09 05:17:08;;;;;;;12.97;6.90;;;-2.30;65.90;;;;;;4986473;28;20298;-90
2022/03/09 05:19:35;;;;;;;11.27;6.37;;;-2.30;66.40;;;;;;4983791;28;20230;-90
2022/03/09 05:24:47;;;;;;;13.23;6.77;;;-2.40;66.30;;;;;;4977731;28;20199;-90
2022/03/09 05:27:15;;;;;;;10.40;6.90;;;-2.40;67.50;;;;;;4985099;28;20229;-91
2022/03/09 05:29:42;;;;;;;11.10;6.90;;;-2.40;67.60;;;;;;4966195;29;20332;-90
2022/03/09 05:32:10;;;;;;;9.63;6.57;;;-2.40;66.70;;;;;;4981302;28;20253;-91
2022/03/09 05:34:39;;;;;;;10.17;6.73;;;-2.30;66.10;;;;;;4994406;28;20225;-91
2022/03/09 05:37:08;;;;;;;12.03;6.80;;;-2.30;67.00;;;;;;4997302;28;20223;-89
2022/03/09 05:39:35;;;;;;;10.40;6.50;;;-2.20;66.30;;;;;;4992108;28;20254;-89
2022/03/09 05:42:02;;;;;;;13.13;6.67;;;-2.20;64.90;;;;;;4978487;28;20742;-89
2022/03/09 05:44:34;;;;;;;11.33;7.03;;;-2.20;65.00;;;;;;4989744;28;20226;-89
2022/03/09 05:47:06;;;;;;;11.80;7.20;;;-2.20;64.80;;;;;;4989625;28;20652;-89
2022/03/09 05:49:36;;;;;;;13.23;6.57;;;-2.20;63.20;;;;;;5024226;23;20327;-89
2022/03/09 05:52:17;;;;;;;11.80;7.00;;;-2.20;64.30;;;;;;4983563;28;20262;-87
2022/03/09 05:54:45;;;;;;;14.43;6.87;;;-2.40;65.60;;;;;;4969803;28;20737;-87
2022/03/09 05:57:13;;;;;;;10.80;6.17;;;-2.40;67.60;;;;;;4987870;28;20303;-87
2022/03/09 05:59:40;;;;;;;11.70;6.63;;;-2.40;67.20;;;;;;4981992;28;20234;-87
2022/03/09 06:02:07;;;;;;;10.27;6.83;;;-2.30;67.70;;;;;;4992546;28;20235;-86
2022/03/09 06:04:34;;;;;;;10.20;7.17;;;-2.30;66.90;;;;;;5000195;28;20712;-87
2022/03/09 06:07:18;;;;;;;14.50;7.43;;;-2.20;67.50;;;;;;4967833;28;20647;-87
2022/03/09 06:09:46;;;;;;;10.20;7.07;;;-2.20;66.70;;;;;;4998047;28;20227;-87
2022/03/09 06:12:13;;;;;;;11.67;7.10;;;-2.20;66.80;;;;;;4981036;28;20227;-87
2022/03/09 06:14:56;;;;;;;10.90;6.83;;;-2.20;67.00;;;;;;5011594;28;20239;-87
2022/03/09 06:17:23;;;;;;;9.90;6.60;;;-2.30;68.00;;;;;;5004883;28;20232;-88
2022/03/09 06:19:54;;;;;;;13.90;7.13;;;-2.30;67.80;;;;;;5005623;28;20657;-88
2022/03/09 06:25:09;;;;;;;12.70;7.20;;;-2.20;68.90;;;;;;5003676;28;20196;-90
2022/03/09 06:27:43;;;;;;;9.83;6.43;;;-2.00;66.80;;;;;;5004020;28;20224;-88
2022/03/09 06:30:27;;;;;;;16.03;7.57;;;-1.80;65.00;;;;;;4994747;28;20215;-88
2022/03/09 06:32:57;;;;;;;15.33;6.90;;;-1.80;62.60;;;;;;4997799;28;20236;-89
2022/03/09 06:35:28;;;;;;;16.13;7.43;;;-1.80;63.50;;;;;;4987194;28;20272;-89
2022/03/09 06:38:02;;;;;;;11.83;7.23;;;-1.80;64.60;;;;;;5006930;28;20224;-88
2022/03/09 06:40:36;;;;;;;12.60;7.13;;;-1.60;65.00;;;;;;5008531;28;20223;-89
2022/03/09 06:43:04;;;;;;;11.50;6.87;;;-1.60;66.10;;;;;;4989524;28;20299;-88
2022/03/09 06:45:52;;;;;;;10.70;6.87;;;-1.50;65.80;;;;;;4990865;28;20674;-88
2022/03/09 07:03:21;;;;;;;18.57;8.00;;;-1.10;63.30;;;;;;4973023;28;20229;-90
2022/03/09 07:05:49;;;;;;;10.47;6.80;;;-0.90;61.00;;;;;;4991712;28;20219;-89
2022/03/09 07:08:32;;;;;;;13.47;7.60;;;-0.80;63.00;;;;;;4994768;28;20232;-90
2022/03/09 07:11:07;;;;;;;14.50;7.00;;;-0.40;60.00;;;;;;5003730;28;20267;-90
2022/03/09 07:13:34;;;;;;;14.73;6.67;;;0.10;57.70;;;;;;4950249;28;20316;-89
2022/03/09 07:16:01;;;;;;;12.07;7.30;;;0.30;55.90;;;;;;4968048;28;20205;-89
2022/03/09 07:18:32;;;;;;;11.50;7.17;;;0.40;52.30;;;;;;4985632;28;20299;-91
2022/03/09 07:21:30;;;;;;;13.27;6.77;;;0.70;50.00;;;;;;4987759;28;20219;-91
2022/03/09 07:28:15;;;;;;;15.07;8.90;;;1.20;45.10;;;;;;4984014;28;20697;-91
2022/03/09 07:31:15;;;;;;;17.17;9.37;;;1.30;43.30;;;;;;5000600;28;20271;-90
2022/03/09 07:34:37;;;;;;;14.33;8.13;;;1.40;43.80;;;;;;5001797;28;20633;-91
2022/03/09 07:37:13;;;;;;;17.13;8.60;;;1.50;41.50;;;;;;4993128;28;20196;-90
2022/03/09 07:40:00;;;;;;;14.03;7.93;;;1.60;42.40;;;;;;4983225;28;20231;-89
2022/03/09 07:42:31;;;;;;;14.10;7.70;;;1.70;41.50;;;;;;4986468;28;20291;-90
2022/03/09 07:45:00;;;;;;;12.43;8.17;;;1.80;39.10;;;;;;4989677;28;20260;-91
2022/03/09 07:50:12;;;;;;;15.23;7.60;;;2.00;39.10;;;;;;5017183;23;20227;-91
2022/03/09 07:52:42;;;;;;;12.73;7.77;;;2.40;36.60;;;;;;4983511;28;20244;-91
2022/03/09 07:55:39;;;;;;;13.57;7.40;;;3.00;34.50;;;;;;4952947;28;20547;-91
2022/03/09 07:58:06;;;;;;;10.40;7.07;;;3.60;32.40;;;;;;4997007;28;20258;-90
2022/03/09 08:00:33;;;;;;;15.77;7.47;;;4.00;29.80;;;;;;4974859;28;20239;-87
2022/03/09 08:03:41;;;;;;;11.23;7.67;;;4.20;29.90;;;;;;4984007;28;20227;-91
2022/03/09 08:06:13;;;;;;;10.47;7.10;;;4.80;27.00;;;;;;4977759;28;20203;-93
2022/03/09 08:08:41;;;;;;;11.67;7.40;;;5.20;25.40;;;;;;4995030;28;20250;-92
2022/03/09 08:11:23;;;;;;;;;;;;;;;;;;;;;
2022/03/09 08:13:56;;;;;;;14.23;7.87;;;5.70;25.00;;;;;;4983150;28;20307;-89
2022/03/09 08:16:23;;;;;;;13.97;8.33;;;5.70;25.00;;;;;;5002626;28;20196;-92
2022/03/09 08:25:39;;;;;;;13.40;8.10;;;5.20;28.20;;;;;;5008384;28;20187;-92
2022/03/09 08:31:31;;;;;;;10.20;7.73;;;5.40;24.20;;;;;;5001571;28;20191;-87
2022/03/09 08:34:02;;;;;;;12.97;8.07;;;5.20;25.70;;;;;;4955953;28;20612;-91
2022/03/09 08:36:30;;;;;;;12.07;8.23;;;5.00;26.10;;;;;;4996703;28;20259;-89
2022/03/09 08:39:01;;;;;;;11.27;8.10;;;5.30;26.80;;;;;;4978628;28;20389;-90
2022/03/09 08:41:30;;;;;;;10.67;7.23;;;5.40;25.80;;;;;;4990346;28;20196;-90
2022/03/09 08:47:27;;;;;;;12.63;7.77;;;5.90;23.00;;;;;;5009463;28;20677;-89
2022/03/09 09:25:42;;;;;;;8.73;7.60;;;15.90;8.30;;;;;;4960851;28;20257;-94
2022/03/09 09:28:15;;;;;;;8.95;8.05;;;16.30;6.70;;;;;;4981885;28;20219;-94
2022/03/09 09:34:10;;;;;;;8.70;7.80;;;16.00;6.10;;;;;;4942051;28;20215;-89
2022/03/09 09:36:48;;;;;;;8.75;7.90;;;17.00;6.30;;;;;;4988509;28;20545;-90
2022/03/09 09:39:20;;;;;;;10.20;8.13;;;17.80;5.90;;;;;;4991444;28;20817;-87
2022/03/09 09:41:57;;;;;;;9.25;8.15;;;18.60;4.60;;;;;;4978647;28;20247;-89
2022/03/09 09:44:26;;;;;;;8.30;7.60;;;18.20;3.90;;;;;;4967964;28;20643;-87
2022/03/09 09:46:55;;;;;;;8.82;8.02;;;19.50;3.30;;;;;;4991865;28;20236;-88
2022/03/09 09:49:25;;;;;;;11.45;7.40;;;20.40;2.60;;;;;;4983150;28;20327;-90
2022/03/09 09:51:57;;;;;;;8.93;7.82;;;19.70;2.70;;;;;;4982568;28;20195;-89
2022/03/09 09:54:39;;;;;;;10.02;7.72;;;20.20;1.60;;;;;;4990625;28;20185;-90
2022/03/09 09:57:23;;;;;;;8.88;7.80;;;20.50;2.40;;;;;;4970201;28;21270;-91
2022/03/09 10:00:09;;;;;;;;;;;;;;;;;;;;;
2022/03/09 10:02:58;;;;;;;9.07;8.18;;;21.30;1.70;;;;;;4986388;28;20234;-91
2022/03/09 10:05:31;;;;;;;8.98;8.18;;;21.40;1.00;;;;;;4980838;28;20196;-90
2022/03/09 10:08:17;;;;;;;8.43;7.10;;;20.00;1.40;;;;;;4984541;28;20228;-89
2022/03/09 10:10:57;;;;;;;8.95;7.60;;;20.10;1.40;;;;;;4979863;28;20670;-89
2022/03/09 10:13:28;;;;;;;8.82;7.93;;;19.70;1.50;;;;;;4984056;28;20254;-90
2022/03/09 10:16:34;;;;;;;9.02;7.63;;;18.60;2.10;;;;;;4980502;28;20202;-91
2022/03/09 10:19:06;;;;;;;9.10;8.00;;;18.60;1.90;;;;;;4977749;28;20298;-89
2022/03/09 10:21:37;;;;;;;8.55;7.70;;;19.30;3.00;;;;;;4961973;28;20663;-90
2022/03/09 10:24:12;;;;;;;9.07;7.70;;;19.70;3.90;;;;;;4977399;28;20219;-89
2022/03/09 10:26:56;;;;;;;8.65;7.82;;;20.20;1.50;;;;;;4978514;28;20230;-90
2022/03/09 10:29:29;;;;;;;9.32;8.43;;;20.00;1.30;;;;;;4982402;28;20301;-87
2022/03/09 10:32:09;;;;;;;;;;;;;;;;;;;;;
2022/03/09 10:34:48;;;;;;;8.70;7.82;;;18.60;2.80;;;;;;4983133;28;20665;-87
2022/03/09 10:37:15;;;;;;;11.65;8.10;;;17.70;3.10;;;;;;4997977;28;20218;-90
2022/03/09 10:39:42;;;;;;;12.13;7.68;;;17.00;3.80;;;;;;4993347;28;20215;-87
2022/03/09 10:42:24;;;;;;;14.48;7.80;;;18.00;3.80;;;;;;4993167;28;20238;-90
2022/03/09 10:44:52;;;;;;;11.52;8.30;;;17.80;3.80;;;;;;4986338;28;20711;-87
2022/03/09 10:47:30;;;;;;;10.25;7.63;;;17.50;5.00;;;;;;5006684;28;20302;-89
2022/03/09 10:50:13;;;;;;;8.25;7.35;;;17.00;3.60;;;;;;4992667;28;20215;-90
2022/03/09 10:52:44;;;;;;;13.35;7.32;;;17.00;4.10;;;;;;5006477;28;20235;-88
2022/03/09 10:55:29;;;;;;;12.57;9.70;;;17.10;4.20;;;;;;4988524;28;20258;-89
2022/03/09 10:58:16;;;;;;;13.48;8.10;;;17.00;3.80;;;;;;4999088;28;20220;-89
2022/03/09 11:00:45;;;;;;;9.23;7.75;;;16.60;3.50;;;;;;5005855;28;20235;-89
2022/03/09 11:03:13;;;;;;;10.68;8.02;;;16.70;3.90;;;;;;4988495;28;20580;-88
2022/03/09 11:05:53;;;;;;;9.52;7.40;;;17.30;3.40;;;;;;4969179;28;20223;-89
2022/03/09 11:08:21;;;;;;;8.57;7.40;;;17.60;2.70;;;;;;4964327;28;20228;-88
2022/03/09 11:10:49;;;;;;;10.65;8.05;;;18.00;2.10;;;;;;4993955;28;20535;-89
2022/03/09 11:13:27;;;;;;;7.80;6.97;;;17.60;2.80;;;;;;4994347;28;20950;-91
2022/03/09 11:18:40;;;;;;;8.15;6.38;;;16.40;2.00;;;;;;4995489;28;20303;-92
2022/03/09 15:59:18;;;;;;;10.27;4.28;;;10.70;14.30;;;;;;5010615;28;20249;-89
2022/03/09 16:04:27;;;;;;;5.50;4.50;;;10.60;14.70;;;;;;4938051;29;20206;-88
2022/03/09 16:21:24;;;;;;;9.18;4.60;;;10.30;15.70;;;;;;5020600;28;20214;-94
2022/03/09 16:29:37;;;;;;;7.53;5.00;;;10.10;16.10;;;;;;4968546;28;20204;-89
2022/03/09 16:35:36;;;;;;;11.75;4.80;;;9.90;17.60;;;;;;5012734;28;20160;-89
2022/03/09 16:38:04;;;;;;;6.25;4.47;;;9.80;17.90;;;;;;5017934;28;20259;-90
2022/03/09 16:44:29;;;;;;;7.32;4.45;;;9.70;18.30;;;;;;5018786;28;20195;-90
2022/03/09 16:46:57;;;;;;;5.82;4.28;;;9.50;18.50;;;;;;5001538;28;20223;-91
2022/03/09 16:53:13;;;;;;;6.45;4.22;;;9.50;18.50;;;;;;5083988;23;20239;-90
2022/03/09 17:02:36;;;;;;;5.53;3.65;;;9.20;20.00;;;;;;4990935;28;20231;-94
2022/03/09 17:20:39;;;;;;;5.57;3.40;;;8.50;20.00;;;;;;4968502;28;20219;-89
2022/03/09 17:26:40;;;;;;;7.53;3.70;;;8.30;20.60;;;;;;4984280;28;20228;-91
2022/03/09 17:46:48;;;;;;;7.72;3.47;;;7.80;22.00;;;;;;4963533;29;20198;-93
2022/03/09 18:21:50;;;;;;;8.27;5.07;;;6.50;25.40;;;;;;4817487;29;20230;-91
2022/03/09 18:27:44;;;;;;;9.43;5.20;;;6.30;26.20;;;;;;4870981;29;20240;-87
2022/03/09 18:30:54;;;;;;;7.23;4.83;;;6.30;25.80;;;;;;4854962;29;20229;-87
2022/03/09 18:36:44;;;;;;;13.20;4.77;;;6.20;26.10;;;;;;4916789;29;20185;-88
2022/03/09 18:39:12;;;;;;;7.53;5.00;;;6.10;26.40;;;;;;4934820;28;20318;-87
2022/03/09 18:41:50;;;;;;;7.53;5.17;;;6.10;26.60;;;;;;4993420;28;20288;-89
2022/03/09 18:53:53;;;;;;;11.47;5.53;;;6.00;28.30;;;;;;5008994;28;20203;-88
2022/03/09 18:56:50;;;;;;;12.50;6.13;;;5.90;27.70;;;;;;5003378;28;20227;-87
2022/03/09 18:59:17;;;;;;;11.33;6.40;;;5.90;29.20;;;;;;5003949;28;20196;-90
2022/03/09 19:01:50;;;;;;;13.03;6.00;;;5.80;29.00;;;;;;4957471;28;20219;-88
2022/03/09 19:04:22;;;;;;;8.93;5.80;;;5.70;30.40;;;;;;4998944;28;20211;-90
2022/03/09 19:06:50;;;;;;;9.23;6.10;;;5.60;30.20;;;;;;4989391;28;20238;-88
2022/03/09 19:09:25;;;;;;;10.53;5.37;;;5.50;29.60;;;;;;4998236;28;20203;-88
2022/03/09 19:11:53;;;;;;;8.73;5.70;;;5.50;30.00;;;;;;5002569;28;20271;-88
2022/03/09 19:14:20;;;;;;;8.50;5.60;;;5.50;29.80;;;;;;4985936;28;20204;-88
2022/03/09 19:16:54;;;;;;;9.23;5.90;;;5.50;30.00;;;;;;4986674;28;20211;-91
2022/03/09 19:19:20;;;;;;;11.70;5.77;;;5.40;29.90;;;;;;4939261;28;20220;-88
2022/03/09 19:21:47;;;;;;;10.27;5.87;;;5.40;29.90;;;;;;4991417;28;20299;-85
2022/03/09 19:24:33;;;;;;;12.40;5.80;;;5.30;29.80;;;;;;4992067;28;20204;-84
2022/03/09 19:27:56;;;;;;;13.17;6.00;;;5.30;30.80;;;;;;4990858;28;20264;-84
2022/03/09 19:30:23;;;;;;;10.33;6.27;;;5.20;30.40;;;;;;4993843;28;20224;-86
2022/03/09 19:32:50;;;;;;;13.03;6.13;;;5.20;30.60;;;;;;4991399;28;20224;-87
2022/03/09 19:35:18;;;;;;;10.20;6.50;;;5.10;30.80;;;;;;4997599;28;20283;-85
2022/03/09 19:37:48;;;;;;;10.90;5.63;;;5.00;32.50;;;;;;4978151;28;20569;-85
2022/03/09 19:40:16;;;;;;;11.10;6.70;;;5.00;32.00;;;;;;4993211;28;20223;-85
2022/03/09 19:42:50;;;;;;;13.53;6.97;;;4.90;32.20;;;;;;4994749;28;20303;-85
2022/03/09 19:45:20;;;;;;;12.10;7.30;;;4.90;33.30;;;;;;4983019;28;20625;-85
2022/03/09 19:47:48;;;;;;;12.87;7.07;;;4.90;32.80;;;;;;4991629;28;20357;-84
2022/03/09 19:50:15;;;;;;;10.40;6.77;;;4.70;32.80;;;;;;4999902;28;20634;-85
2022/03/09 19:52:46;;;;;;;9.80;6.90;;;4.60;32.60;;;;;;4973297;28;20228;-87
2022/03/09 19:55:15;;;;;;;16.07;7.17;;;4.70;33.20;;;;;;4964621;28;20232;-88
2022/03/09 20:01:06;;;;;;;11.37;6.67;;;4.60;33.20;;;;;;4998105;28;20231;-85
2022/03/09 20:03:37;;;;;;;15.53;7.73;;;4.60;33.30;;;;;;5008104;28;20258;-85
2022/03/09 20:06:05;;;;;;;19.30;8.83;;;4.60;33.50;;;;;;5004179;28;20597;-87
2022/03/09 20:08:38;;;;;;;14.27;8.33;;;4.50;35.40;;;;;;4992643;28;20220;-86
2022/03/09 20:11:08;;;;;;;16.63;8.03;;;4.40;36.30;;;;;;4977144;28;20204;-87
2022/03/09 20:13:35;;;;;;;16.37;8.97;;;4.40;38.00;;;;;;4997706;28;20302;-87
2022/03/09 20:16:17;;;;;;;14.87;8.27;;;4.30;37.10;;;;;;4983817;28;20227;-86
2022/03/09 20:18:44;;;;;;;13.53;8.20;;;4.20;37.00;;;;;;4998922;28;20986;-85
2022/03/09 20:21:13;;;;;;;14.67;8.70;;;4.10;36.90;;;;;;4998622;28;20216;-87
2022/03/09 20:23:46;;;;;;;15.77;8.80;;;4.20;37.40;;;;;;4999803;28;20331;-88
2022/03/09 20:26:20;;;;;;;16.60;8.33;;;4.20;36.80;;;;;;4968380;28;20200;-86
2022/03/09 20:28:51;;;;;;;16.50;8.90;;;4.20;36.50;;;;;;4994939;28;20274;-85
2022/03/09 20:31:19;;;;;;;13.27;7.83;;;4.10;37.60;;;;;;4981438;28;20200;-89
2022/03/09 20:33:50;;;;;;;12.93;8.17;;;4.10;36.90;;;;;;4994896;28;20637;-89
2022/03/09 20:36:21;;;;;;;13.00;8.47;;;4.10;37.40;;;;;;5005063;28;20235;-88
2022/03/09 20:42:11;;;;;;;18.17;9.03;;;4.00;37.40;;;;;;4994809;28;20254;-87
2022/03/09 20:45:08;;;;;;;15.10;9.23;;;4.00;37.60;;;;;;4999496;28;20219;-87
2022/03/09 20:47:39;;;;;;;28.30;12.97;;;3.90;37.40;;;;;;5001275;28;20267;-87
2022/03/09 20:50:08;;;;;;;23.63;11.43;;;3.90;38.30;;;;;;5000963;23;20565;-88
2022/03/09 20:53:03;;;;;;;21.43;11.67;;;3.80;38.00;;;;;;4995640;28;20228;-89
2022/03/09 20:55:31;;;;;;;16.50;9.97;;;3.80;38.30;;;;;;4994740;28;20508;-87
2022/03/09 20:58:18;;;;;;;16.67;9.50;;;3.70;41.50;;;;;;4997788;28;20358;-87
2022/03/09 21:00:48;;;;;;;17.30;9.20;;;3.70;40.90;;;;;;4996396;28;20227;-89
2022/03/09 21:03:17;;;;;;;15.97;8.93;;;3.60;41.60;;;;;;4981205;28;20240;-87
2022/03/09 21:05:46;;;;;;;21.33;12.17;;;3.60;40.50;;;;;;4985421;28;20418;-88
2022/03/09 21:08:33;;;;;;;27.47;14.37;;;3.50;40.70;;;;;;4993550;28;20276;-90
2022/03/09 21:11:23;;;;;;;72.63;27.93;;;3.50;40.90;;;;;;4987736;28;20208;-91
2022/03/09 21:13:59;;;;;;;80.53;31.77;;;3.40;41.70;;;;;;4908158;29;20222;-88
2022/03/09 21:16:33;;;;;;;49.10;19.73;;;3.40;43.00;;;;;;4991360;28;20203;-88
2022/03/09 21:19:06;;;;;;;28.53;13.53;;;3.40;43.00;;;;;;4985459;28;20216;-89
2022/03/09 21:21:35;;;;;;;23.57;12.00;;;3.30;43.00;;;;;;4993765;28;20230;-88
2022/03/09 21:24:08;;;;;;;20.67;11.50;;;3.20;42.90;;;;;;4991151;28;20244;-88
2022/03/09 21:26:44;;;;;;;17.93;10.20;;;3.10;42.80;;;;;;5000244;28;20208;-88
2022/03/09 21:29:12;;;;;;;21.13;9.97;;;3.00;42.70;;;;;;4990234;28;20242;-88
2022/03/09 21:31:41;;;;;;;19.07;9.97;;;3.00;42.70;;;;;;5002626;28;20251;-87
2022/03/09 21:34:15;;;;;;;18.47;10.53;;;3.00;43.00;;;;;;4992419;28;20215;-88
2022/03/09 21:36:43;;;;;;;23.13;13.17;;;3.00;42.80;;;;;;4991170;28;20247;-87
2022/03/09 21:39:13;;;;;;;31.63;13.30;;;3.00;43.80;;;;;;4985074;28;20226;-88
2022/03/09 21:42:02;;;;;;;21.07;11.47;;;2.90;45.30;;;;;;4978844;28;20286;-89
2022/03/09 21:44:30;;;;;;;18.37;10.77;;;2.80;44.70;;;;;;4942039;28;20680;-87
2022/03/09 21:47:12;;;;;;;20.60;10.13;;;2.70;45.90;;;;;;4994788;28;20223;-87
2022/03/09 21:49:41;;;;;;;15.63;9.23;;;2.70;46.50;;;;;;5003149;28;20282;-87
2022/03/09 21:55:18;;;;;;;15.00;8.33;;;2.50;46.80;;;;;;4971269;28;20200;-87
2022/03/09 21:57:45;;;;;;;16.27;7.57;;;2.50;46.90;;;;;;4997809;28;20663;-87
2022/03/09 22:00:15;;;;;;;14.10;7.87;;;2.60;47.80;;;;;;5001093;28;20207;-89
2022/03/09 22:02:45;;;;;;;11.97;7.60;;;2.60;46.50;;;;;;4993810;28;20231;-89
2022/03/09 22:05:13;;;;;;;12.37;7.43;;;2.60;46.10;;;;;;5005824;28;20286;-87
2022/03/09 22:07:41;;;;;;;11.60;7.50;;;2.60;46.60;;;;;;4990093;28;20246;-87
2022/03/09 22:10:11;;;;;;;15.07;8.27;;;2.60;47.20;;;;;;5005324;28;20199;-88
2022/03/09 22:16:43;;;;;;;15.20;7.63;;;2.50;47.00;;;;;;4993398;28;20199;-88
2022/03/09 22:19:21;;;;;;;;;;;;;;;;;;;;;
2022/03/09 22:25:12;;;;;;;12.57;7.70;;;2.50;48.20;;;;;;4995538;28;20657;-88
2022/03/09 22:27:47;;;;;;;13.63;8.40;;;2.30;48.60;;;;;;4986379;28;20304;-88
2022/03/09 22:33:37;;;;;;;12.40;7.93;;;2.20;50.40;;;;;;5003322;28;20358;-87
2022/03/09 22:36:06;;;;;;;13.63;8.27;;;2.10;50.00;;;;;;4990543;28;20228;-88
2022/03/09 22:38:42;;;;;;;15.20;7.50;;;2.10;49.40;;;;;;5001442;28;20294;-88
2022/03/09 22:41:11;;;;;;;15.00;8.70;;;2.10;50.20;;;;;;4984364;28;20226;-88
2022/03/09 22:43:38;;;;;;;13.50;8.50;;;2.10;51.10;;;;;;4971539;28;20227;-87
2022/03/09 22:51:58;;;;;;;19.57;9.70;;;1.80;51.40;;;;;;5095958;22;20230;-87
2022/03/09 22:54:28;;;;;;;16.87;9.40;;;1.90;52.20;;;;;;4989266;28;20227;-87
2022/03/09 22:57:36;;;;;;;15.87;8.83;;;1.90;52.20;;;;;;5005123;28;20211;-87
2022/03/09 23:06:59;;;;;;;15.97;7.77;;;1.80;52.00;;;;;;5007392;28;20640;-87
2022/03/09 23:10:03;;;;;;;16.00;7.60;;;1.70;53.00;;;;;;4956167;28;20202;-87
2022/03/09 23:16:18;;;;;;;14.57;7.90;;;1.60;53.30;;;;;;5008116;28;20162;-87
2022/03/09 23:18:49;;;;;;;17.83;8.00;;;1.60;54.50;;;;;;5007080;28;20203;-87
2022/03/09 23:31:56;;;;;;;15.80;7.07;;;1.60;53.90;;;;;;4875020;29;20292;-86
2022/03/09 23:34:36;;;;;;;11.93;7.40;;;1.60;52.90;;;;;;4890848;29;20278;-87
2022/03/09 23:37:25;;;;;;;15.53;7.60;;;1.60;52.40;;;;;;4863647;29;20212;-88
2022/03/09 23:47:08;;;;;;;12.27;7.30;;;1.50;53.20;;;;;;4925960;29;20231;-87
